createdAt,value
2019-02-04T00:01:01.100Z,22.57
2019-02-04T00:03:30.308Z,21.20
2019-02-04T00:05:59.130Z,17.37
2019-02-04T00:08:29.397Z,17.37
2019-02-04T00:11:06.164Z,14.90
2019-02-04T00:13:35.206Z,14.03
2019-02-04T00:16:04.210Z,13.40
2019-02-04T00:18:33.503Z,14.00
2019-02-04T00:21:02.930Z,13.20
2019-02-04T00:23:32.054Z,12.67
2019-02-04T00:26:02.263Z,11.33
2019-02-04T00:28:31.200Z,11.83
2019-02-04T00:31:00.154Z,11.00
2019-02-04T00:33:29.373Z,11.53
2019-02-04T00:35:59.354Z,12.17
2019-02-04T00:38:28.012Z,11.03
2019-02-04T00:40:56.536Z,11.33
2019-02-04T00:43:25.315Z,12.20
2019-02-04T00:45:54.214Z,11.40
2019-02-04T00:48:27.511Z,11.17
2019-02-04T00:50:56.188Z,10.30
2019-02-04T00:53:25.041Z,11.43
2019-02-04T00:55:54.018Z,11.60
2019-02-04T00:58:22.485Z,11.50
2019-02-04T01:00:51.216Z,11.23
2019-02-04T01:03:20.413Z,11.17
2019-02-04T01:05:50.361Z,11.23
2019-02-04T01:08:19.037Z,11.10
2019-02-04T01:10:47.653Z,11.67
2019-02-04T01:13:16.386Z,11.50
2019-02-04T01:15:45.131Z,11.13
2019-02-04T01:18:13.826Z,10.40
2019-02-04T01:20:42.436Z,10.63
2019-02-04T01:23:12.837Z,9.07
2019-02-04T01:25:41.217Z,10.43
2019-02-04T01:28:09.938Z,10.80
2019-02-04T01:30:38.917Z,10.23
2019-02-04T01:33:07.365Z,9.90
2019-02-04T01:35:35.833Z,10.03
2019-02-04T01:38:04.541Z,9.77
2019-02-04T01:40:33.516Z,9.70
2019-02-04T01:43:02.394Z,9.67
2019-02-04T01:45:33.758Z,9.90
2019-02-04T01:48:02.981Z,9.53
2019-02-04T01:50:31.659Z,9.27
2019-02-04T01:53:00.219Z,8.83
2019-02-04T01:55:28.922Z,9.17
2019-02-04T01:57:57.911Z,9.87
2019-02-04T02:00:31.946Z,9.80
2019-02-04T02:03:00.940Z,11.13
2019-02-04T02:05:29.916Z,9.50
2019-02-04T02:07:58.474Z,10.57
2019-02-04T02:10:27.802Z,10.27
2019-02-04T02:12:57.231Z,10.00
2019-02-04T02:15:27.296Z,10.13
2019-02-04T02:17:56.150Z,12.50
2019-02-04T02:20:27.489Z,10.63
2019-02-04T02:22:56.412Z,10.73
2019-02-04T02:25:25.469Z,9.53
2019-02-04T02:27:54.459Z,10.87
2019-02-04T02:30:32.397Z,11.33
2019-02-04T02:33:01.086Z,11.80
2019-02-04T02:35:29.804Z,10.17
2019-02-04T02:37:58.789Z,11.50
2019-02-04T02:40:32.399Z,10.53
2019-02-04T02:43:03.628Z,10.97
2019-02-04T02:45:32.552Z,10.73
2019-02-04T02:48:01.413Z,11.53
2019-02-04T02:50:30.129Z,10.77
2019-02-04T02:52:59.011Z,12.33
2019-02-04T02:55:27.868Z,12.23
2019-02-04T02:57:56.988Z,12.83
2019-02-04T03:00:27.830Z,12.00
2019-02-04T03:02:56.259Z,13.70
2019-02-04T03:05:24.799Z,13.57
2019-02-04T03:07:53.235Z,16.17
2019-02-04T03:10:24.715Z,14.20
2019-02-04T03:12:53.264Z,14.57
2019-02-04T03:15:22.101Z,13.93
2019-02-04T03:17:52.622Z,15.50
2019-02-04T03:20:21.527Z,13.20
2019-02-04T03:22:50.217Z,12.53
2019-02-04T03:25:18.665Z,12.20
2019-02-04T03:27:47.071Z,13.03
2019-02-04T03:30:27.603Z,13.40
2019-02-04T03:32:56.221Z,14.27
2019-02-04T03:35:24.650Z,13.73
2019-02-04T03:37:53.293Z,13.60
2019-02-04T03:40:24.696Z,14.53
2019-02-04T03:42:53.363Z,15.47
2019-02-04T03:45:21.844Z,17.30
2019-02-04T03:48:03.764Z,14.70
2019-02-04T03:50:20.673Z,15.40
2019-02-04T03:52:49.699Z,17.03
2019-02-04T03:55:18.747Z,17.77
2019-02-04T03:57:47.304Z,15.67
2019-02-04T04:00:24.840Z,17.10
2019-02-04T04:02:53.474Z,17.63
2019-02-04T04:05:21.970Z,17.33
2019-02-04T04:07:53.304Z,14.90
2019-02-04T04:10:20.740Z,14.00
2019-02-04T04:12:49.206Z,15.27
2019-02-04T04:15:17.916Z,14.67
2019-02-04T04:17:48.373Z,15.73
2019-02-04T04:20:19.196Z,15.63
2019-02-04T04:22:47.626Z,17.37
2019-02-04T04:25:17.345Z,15.83
2019-02-04T04:27:45.910Z,15.57
2019-02-04T04:30:17.095Z,17.00
2019-02-04T04:32:45.567Z,17.20
2019-02-04T04:35:14.961Z,17.90
2019-02-04T04:37:43.588Z,17.37
2019-02-04T04:40:13.686Z,17.47
2019-02-04T04:42:42.148Z,17.20
2019-02-04T04:45:13.721Z,17.93
2019-02-04T04:47:42.257Z,13.87
2019-02-04T04:50:11.095Z,13.23
2019-02-04T04:52:39.567Z,14.23
2019-02-04T04:55:25.953Z,12.83
2019-02-04T04:57:54.882Z,15.80
2019-02-04T05:00:26.254Z,15.10
2019-02-04T05:02:54.729Z,16.53
2019-02-04T05:05:23.249Z,16.77
2019-02-04T05:07:51.712Z,17.00
2019-02-04T05:10:21.439Z,17.37
2019-02-04T05:12:49.848Z,19.60
2019-02-04T05:15:23.996Z,20.63
2019-02-04T05:17:52.886Z,19.43
2019-02-04T05:20:21.968Z,19.00
2019-02-04T05:22:50.406Z,21.33
2019-02-04T05:25:18.992Z,17.97
2019-02-04T05:27:47.478Z,17.20
2019-02-04T05:30:21.341Z,17.50
2019-02-04T05:32:49.822Z,19.13
2019-02-04T05:35:18.545Z,18.17
2019-02-04T05:37:47.070Z,17.80
2019-02-04T05:40:17.112Z,17.57
2019-02-04T05:42:46.331Z,17.57
2019-02-04T05:45:19.328Z,19.30
2019-02-04T05:47:47.760Z,18.87
2019-02-04T05:50:20.204Z,18.83
2019-02-04T05:52:49.216Z,18.30
2019-02-04T05:55:20.231Z,17.10
2019-02-04T05:57:48.723Z,14.57
2019-02-04T06:00:22.009Z,17.03
2019-02-04T06:02:51.316Z,16.63
2019-02-04T06:05:20.045Z,16.90
2019-02-04T06:07:48.418Z,15.90
2019-02-04T06:10:17.755Z,15.23
2019-02-04T06:12:46.202Z,17.40
2019-02-04T06:15:16.153Z,18.53
2019-02-04T06:17:44.603Z,17.37
2019-02-04T06:20:25.438Z,14.83
2019-02-04T06:22:54.149Z,15.77
2019-02-04T06:25:22.755Z,14.07
2019-02-04T06:27:51.394Z,15.83
2019-02-04T06:30:21.947Z,17.60
2019-02-04T06:32:50.395Z,17.80
2019-02-04T06:35:19.327Z,17.20
2019-02-04T06:37:48.226Z,17.97
2019-02-04T06:40:19.700Z,17.97
2019-02-04T06:42:48.145Z,17.67
2019-02-04T06:45:17.989Z,19.87
2019-02-04T06:47:46.599Z,19.33
2019-02-04T06:50:17.505Z,18.53
2019-02-04T06:52:45.997Z,19.33
2019-02-04T06:55:28.873Z,20.13
2019-02-04T06:57:57.319Z,18.50
2019-02-04T07:00:25.785Z,19.17
2019-02-04T07:02:54.298Z,34.50
2019-02-04T07:05:22.770Z,23.00
2019-02-04T07:07:51.281Z,21.63
2019-02-04T07:10:25.443Z,21.50
2019-02-04T07:12:53.981Z,24.13
2019-02-04T07:15:22.406Z,26.70
2019-02-04T07:17:50.920Z,24.30
2019-02-04T07:20:24.009Z,23.60
2019-02-04T07:22:52.454Z,23.73
2019-02-04T07:25:21.699Z,20.60
2019-02-04T07:27:50.155Z,20.57
2019-02-04T07:30:27.701Z,18.57
2019-02-04T07:32:56.405Z,21.77
2019-02-04T07:35:25.207Z,19.40
2019-02-04T07:37:53.612Z,20.97
2019-02-04T07:40:24.334Z,25.67
2019-02-04T07:42:53.870Z,31.07
2019-02-04T07:45:22.395Z,27.47
2019-02-04T07:47:51.269Z,24.90
2019-02-04T07:50:19.714Z,26.37
2019-02-04T07:52:48.183Z,23.13
2019-02-04T07:55:16.683Z,23.00
2019-02-04T07:57:45.225Z,21.90
2019-02-04T08:02:54.664Z,23.73
2019-02-04T08:05:23.474Z,25.97
2019-02-04T08:07:52.026Z,23.03
2019-02-04T08:10:20.588Z,24.30
2019-02-04T08:13:00.512Z,22.43
2019-02-04T08:15:34.178Z,29.03
2019-02-04T08:18:02.735Z,27.60
2019-02-04T08:20:31.169Z,28.67
2019-02-04T08:22:59.635Z,24.17
2019-02-04T08:25:28.180Z,22.97
2019-02-04T08:27:57.096Z,21.90
2019-02-04T08:30:38.098Z,24.63
2019-02-04T08:33:06.895Z,24.50
2019-02-04T08:35:35.317Z,23.97
2019-02-04T08:38:03.862Z,23.43
2019-02-04T08:40:32.493Z,22.93
2019-02-04T08:43:00.899Z,24.27
2019-02-04T08:45:29.393Z,24.83
2019-02-04T08:47:57.792Z,25.87
2019-02-04T08:50:27.895Z,22.60
2019-02-04T08:52:56.472Z,22.40
2019-02-04T08:55:24.894Z,23.40
2019-02-04T08:57:53.825Z,21.40
2019-02-04T09:00:23.794Z,20.63
2019-02-04T09:02:52.265Z,21.87
2019-02-04T09:05:22.769Z,21.90
2019-02-04T09:07:51.341Z,22.93
2019-02-04T09:10:22.814Z,24.30
2019-02-04T09:12:51.675Z,26.13
2019-02-04T09:15:20.209Z,22.57
2019-02-04T09:17:48.684Z,23.57
2019-02-04T09:20:18.409Z,22.63
2019-02-04T09:22:47.388Z,22.07
2019-02-04T09:25:18.094Z,23.13
2019-02-04T09:27:46.620Z,22.37
2019-02-04T09:30:18.230Z,24.37
2019-02-04T09:32:46.728Z,26.20
2019-02-04T09:35:17.596Z,23.47
2019-02-04T09:37:46.101Z,24.17
2019-02-04T09:40:26.592Z,22.77
2019-02-04T09:42:55.127Z,23.07
2019-02-04T09:45:27.335Z,24.17
2019-02-04T09:47:53.935Z,23.97
2019-02-04T09:50:24.978Z,22.73
2019-02-04T09:52:53.377Z,25.73
2019-02-04T09:55:27.730Z,24.83
2019-02-04T09:57:56.183Z,23.77
2019-02-04T10:00:27.025Z,26.70
2019-02-04T10:02:55.826Z,24.93
2019-02-04T10:05:24.456Z,26.17
2019-02-04T10:07:53.045Z,27.80
2019-02-04T10:10:27.158Z,25.80
2019-02-04T10:12:55.809Z,27.10
2019-02-04T10:15:26.704Z,26.13
2019-02-04T10:17:55.174Z,23.87
2019-02-04T10:20:33.323Z,23.40
2019-02-04T10:22:53.948Z,23.67
2019-02-04T10:25:31.254Z,24.13
2019-02-04T10:27:59.706Z,28.90
2019-02-04T10:30:28.280Z,47.83
2019-02-04T10:32:56.759Z,27.47
2019-02-04T10:35:26.042Z,24.03
2019-02-04T10:37:54.697Z,24.30
2019-02-04T10:40:28.290Z,24.03
2019-02-04T10:42:56.844Z,22.60
2019-02-04T10:45:25.485Z,22.37
2019-02-04T10:47:54.039Z,22.67
2019-02-04T10:50:30.877Z,22.53
2019-02-04T10:52:59.459Z,20.67
2019-02-04T10:55:28.032Z,18.77
2019-02-04T10:57:56.514Z,20.03
2019-02-04T11:00:30.480Z,20.60
2019-02-04T11:02:58.967Z,21.27
2019-02-04T11:05:35.694Z,21.50
2019-02-04T11:08:05.341Z,21.57
2019-02-04T11:10:35.462Z,21.93
2019-02-04T11:13:09.454Z,20.67
2019-02-04T11:15:38.049Z,21.10
2019-02-04T11:18:06.818Z,20.97
2019-02-04T11:20:35.869Z,22.47
2019-02-04T11:23:06.577Z,22.73
2019-02-04T11:25:35.143Z,21.93
2019-02-04T11:28:03.669Z,22.40
2019-02-04T11:30:38.145Z,23.00
2019-02-04T11:33:07.201Z,21.23
2019-02-04T11:35:35.753Z,23.70
2019-02-04T11:38:04.723Z,22.70
2019-02-04T11:40:38.679Z,22.73
2019-02-04T11:43:07.911Z,22.30
2019-02-04T11:45:36.423Z,22.40
2019-02-04T11:48:08.209Z,22.90
2019-02-04T11:50:36.763Z,23.43
2019-02-04T11:53:05.465Z,22.73
2019-02-04T11:55:33.898Z,22.13
2019-02-04T11:58:02.821Z,22.03
2019-02-04T12:00:32.696Z,22.00
2019-02-04T12:03:03.739Z,19.87
2019-02-04T12:05:32.221Z,20.43
2019-02-04T12:08:00.695Z,17.50
2019-02-04T12:10:35.147Z,18.20
2019-02-04T12:13:03.940Z,19.83
2019-02-04T12:15:32.437Z,19.07
2019-02-04T12:18:00.888Z,18.17
2019-02-04T12:20:29.419Z,18.07
2019-02-04T12:22:57.892Z,17.77
2019-02-04T12:25:27.706Z,17.77
2019-02-04T12:27:57.317Z,14.83
2019-02-04T12:30:30.953Z,12.37
2019-02-04T12:32:59.152Z,11.20
2019-02-04T12:35:27.652Z,12.60
2019-02-04T12:37:56.223Z,10.70
2019-02-04T12:40:28.032Z,11.73
2019-02-04T12:42:57.296Z,11.40
2019-02-04T12:45:32.652Z,9.70
2019-02-04T12:48:01.638Z,8.37
2019-02-04T12:50:30.149Z,7.90
2019-02-04T12:53:00.356Z,7.97
2019-02-04T12:55:30.956Z,7.87
2019-02-04T12:58:00.782Z,7.83
2019-02-04T13:00:30.879Z,5.03
2019-02-04T13:02:59.553Z,4.97
2019-02-04T13:05:35.344Z,5.20
2019-02-04T13:08:04.757Z,5.70
2019-02-04T13:10:33.344Z,4.83
2019-02-04T13:13:02.472Z,5.33
2019-02-04T13:15:31.287Z,5.60
2019-02-04T13:18:02.102Z,5.90
2019-02-04T13:20:32.336Z,6.20
2019-02-04T13:23:01.158Z,5.23
2019-02-04T13:25:32.566Z,5.87
2019-02-04T13:28:01.368Z,4.77
2019-02-04T13:30:31.590Z,5.60
2019-02-04T13:33:02.370Z,5.10
2019-02-04T13:35:32.872Z,5.30
2019-02-04T13:38:01.478Z,5.63
2019-02-04T13:40:31.364Z,6.00
2019-02-04T13:43:00.501Z,5.37
2019-02-04T13:45:29.604Z,5.93
2019-02-04T13:50:49.103Z,5.03
2019-02-04T13:53:18.218Z,5.50
2019-02-04T13:55:48.252Z,5.17
2019-02-04T13:58:17.678Z,6.13
2019-02-04T14:00:50.179Z,5.80
2019-02-04T14:03:20.664Z,5.40
2019-02-04T14:05:49.685Z,5.23
2019-02-04T14:08:19.133Z,5.50
2019-02-04T14:10:50.799Z,6.40
2019-02-04T14:13:21.857Z,5.90
2019-02-04T14:15:50.684Z,6.00
2019-02-04T14:18:23.269Z,6.20
2019-02-04T14:20:56.318Z,5.83
2019-02-04T14:23:29.490Z,6.37
2019-02-04T14:25:58.834Z,5.43
2019-02-04T14:28:27.801Z,6.50
2019-02-04T14:31:02.091Z,6.30
2019-02-04T14:33:31.216Z,6.43
2019-02-04T14:36:02.103Z,6.37
2019-02-04T14:38:52.159Z,6.00
2019-02-04T14:41:20.751Z,6.07
2019-02-04T14:43:52.092Z,5.80
2019-02-04T14:46:33.087Z,5.73
2019-02-04T14:49:25.828Z,5.37
2019-02-04T14:52:03.231Z,6.40
2019-02-04T14:54:54.952Z,6.40
2019-02-04T14:57:43.364Z,6.97
2019-02-04T15:00:22.936Z,6.10
2019-02-04T15:03:19.498Z,6.67
2019-02-04T15:05:43.014Z,7.37
2019-02-04T15:08:33.397Z,7.17
2019-02-04T15:11:10.880Z,6.93
2019-02-04T15:14:01.860Z,7.43
2019-02-04T15:16:42.710Z,6.83
2019-02-04T15:19:38.398Z,7.57
2019-02-04T15:22:18.790Z,7.27
2019-02-04T15:24:53.203Z,8.03
2019-02-04T15:27:40.549Z,7.33
2019-02-04T15:30:27.378Z,7.77
2019-02-04T15:33:11.130Z,7.80
2019-02-04T15:35:42.733Z,7.10
2019-02-04T15:38:34.278Z,6.87
2019-02-04T15:41:14.622Z,7.10
2019-02-04T15:43:56.857Z,7.27
2019-02-04T15:46:37.279Z,6.53
2019-02-04T15:49:28.457Z,7.50
2019-02-04T15:51:58.821Z,7.47
2019-02-04T15:54:29.348Z,8.03
2019-02-04T15:56:57.950Z,7.30
2019-02-04T15:59:32.251Z,7.10
2019-02-04T16:02:01.027Z,8.83
2019-02-04T16:04:34.159Z,8.60
2019-02-04T16:07:04.271Z,8.90
2019-02-04T16:09:32.862Z,9.23
2019-02-04T16:12:03.220Z,8.83
2019-02-04T16:14:32.483Z,9.43
2019-02-04T16:17:05.123Z,8.70
2019-02-04T16:19:33.678Z,9.10
2019-02-04T16:22:02.459Z,9.83
2019-02-04T16:24:33.642Z,8.33
2019-02-04T16:27:04.313Z,7.93
2019-02-04T16:29:35.929Z,7.93
2019-02-04T16:32:10.214Z,8.07
2019-02-04T16:34:38.747Z,8.87
2019-02-04T16:37:07.817Z,8.77
2019-02-04T16:39:39.766Z,8.47
2019-02-04T16:42:08.638Z,8.43
2019-02-04T16:44:37.783Z,8.53
2019-02-04T16:47:06.376Z,10.37
2019-02-04T16:49:37.050Z,10.90
2019-02-04T16:52:05.970Z,10.47
2019-02-04T16:54:37.601Z,11.83
2019-02-04T16:57:06.563Z,10.77
2019-02-04T16:59:35.115Z,10.30
2019-02-04T17:02:04.355Z,11.10
2019-02-04T17:04:33.006Z,10.50
2019-02-04T17:07:03.034Z,11.90
2019-02-04T17:09:31.818Z,12.67
2019-02-04T17:12:01.372Z,15.00
2019-02-04T17:14:29.854Z,19.50
2019-02-04T17:16:58.630Z,18.33
2019-02-04T17:19:27.176Z,19.07
2019-02-04T17:21:56.012Z,19.90
2019-02-04T17:24:24.756Z,22.27
2019-02-04T17:27:02.249Z,24.10
2019-02-04T17:29:31.176Z,14.20
2019-02-04T17:32:03.104Z,17.60
2019-02-04T17:34:32.567Z,25.63
2019-02-04T17:37:01.254Z,32.27
2019-02-04T17:39:32.593Z,25.33
2019-02-04T17:42:01.129Z,28.43
2019-02-04T17:44:29.829Z,30.80
2019-02-04T17:46:58.253Z,27.63
2019-02-04T17:49:27.429Z,23.07
2019-02-04T17:51:57.023Z,15.67
2019-02-04T17:54:28.091Z,13.70
2019-02-04T17:56:56.954Z,14.83
2019-02-04T17:59:25.434Z,17.37
2019-02-04T18:01:54.124Z,17.50
2019-02-04T18:04:22.826Z,18.20
2019-02-04T18:06:52.453Z,19.23
2019-02-04T18:09:21.178Z,18.67
2019-02-04T18:11:49.628Z,19.23
2019-02-04T18:14:18.069Z,19.03
2019-02-04T18:16:46.533Z,16.67
2019-02-04T18:19:14.969Z,17.80
2019-02-04T18:21:43.436Z,17.50
2019-02-04T18:24:12.171Z,16.47
2019-02-04T18:26:40.710Z,17.33
2019-02-04T18:29:09.050Z,17.87
2019-02-04T18:31:37.564Z,15.23
2019-02-04T18:34:06.083Z,17.40
2019-02-04T18:36:34.469Z,17.23
2019-02-04T18:39:04.547Z,17.47
2019-02-04T18:41:32.946Z,16.73
2019-02-04T18:44:01.513Z,16.43
2019-02-04T18:46:30.491Z,18.40
2019-02-04T18:48:58.945Z,18.47
2019-02-04T18:51:27.343Z,17.97
2019-02-04T18:53:57.749Z,18.43
2019-02-04T18:56:26.102Z,18.50
2019-02-04T18:58:54.620Z,16.57
2019-02-04T19:01:23.159Z,17.30
2019-02-04T19:03:51.668Z,18.30
2019-02-04T19:06:20.193Z,19.30
2019-02-04T19:08:50.804Z,20.30
2019-02-04T19:11:19.242Z,19.37
2019-02-04T19:13:47.667Z,20.07
2019-02-04T19:16:16.325Z,18.53
2019-02-04T19:18:44.743Z,20.23
2019-02-04T19:21:13.248Z,19.97
2019-02-04T19:23:42.196Z,19.40
2019-02-04T19:26:10.574Z,20.30
2019-02-04T19:28:39.097Z,19.57
2019-02-04T19:31:10.195Z,18.60
2019-02-04T19:33:39.218Z,19.00
2019-02-04T19:36:10.212Z,19.07
2019-02-04T19:38:39.124Z,19.73
2019-02-04T19:41:09.058Z,18.13
2019-02-04T19:43:39.463Z,18.50
2019-02-04T19:46:08.577Z,20.07
2019-02-04T19:48:37.883Z,20.20
2019-02-04T19:51:07.039Z,19.33
2019-02-04T19:53:38.775Z,18.40
2019-02-04T19:56:10.923Z,19.80
2019-02-04T19:58:39.788Z,18.67
2019-02-04T20:01:08.844Z,19.60
2019-02-04T20:03:37.886Z,19.87
2019-02-04T20:06:06.861Z,19.10
2019-02-04T20:08:36.396Z,21.47
2019-02-04T20:11:07.170Z,21.03
2019-02-04T20:13:35.706Z,21.20
2019-02-04T20:16:04.413Z,26.13
2019-02-04T20:18:32.867Z,21.03
2019-02-04T20:21:01.305Z,19.60
2019-02-04T20:23:30.073Z,19.40
2019-02-04T20:25:58.538Z,21.83
2019-02-04T20:28:31.659Z,23.17
2019-02-04T20:31:00.082Z,23.03
2019-02-04T20:33:28.502Z,20.20
2019-02-04T20:35:56.922Z,18.73
2019-02-04T20:38:27.357Z,20.03
2019-02-04T20:40:55.983Z,19.70
2019-02-04T20:43:24.440Z,22.20
2019-02-04T20:45:52.831Z,25.27
2019-02-04T20:48:21.390Z,22.90
2019-02-04T20:50:50.781Z,22.27
2019-02-04T20:53:19.227Z,21.43
2019-02-04T20:55:47.689Z,20.97
2019-02-04T20:58:16.123Z,22.13
2019-02-04T21:00:44.601Z,24.13
2019-02-04T21:03:13.035Z,24.53
2019-02-04T21:05:41.427Z,23.77
2019-02-04T21:08:10.429Z,22.53
2019-02-04T21:10:42.306Z,23.40
2019-02-04T21:13:13.732Z,22.90
2019-02-04T21:15:44.158Z,24.27
2019-02-04T21:18:13.412Z,22.47
2019-02-04T21:20:42.524Z,22.23
2019-02-04T21:23:12.328Z,21.40
2019-02-04T21:25:40.876Z,22.77
2019-02-04T21:28:10.689Z,22.13
2019-02-04T21:30:41.004Z,22.77
2019-02-04T21:33:10.794Z,23.60
2019-02-04T21:35:39.291Z,22.00
2019-02-04T21:38:08.548Z,23.60
2019-02-04T21:40:38.895Z,23.20
2019-02-04T21:43:07.996Z,22.97
2019-02-04T21:45:38.956Z,21.10
2019-02-04T21:48:08.410Z,21.33
2019-02-04T21:50:36.913Z,22.70
2019-02-04T21:53:05.968Z,22.60
2019-02-04T21:55:34.424Z,21.47
2019-02-04T21:58:03.177Z,22.93
2019-02-04T22:00:35.496Z,22.67
2019-02-04T22:03:04.510Z,21.20
2019-02-04T22:05:34.680Z,21.80
2019-02-04T22:08:03.533Z,22.00
2019-02-04T22:10:32.331Z,23.33
2019-02-04T22:13:02.579Z,21.97
2019-02-04T22:15:31.416Z,22.87
2019-02-04T22:17:59.928Z,22.97
2019-02-04T22:20:28.534Z,23.60
2019-02-04T22:22:57.106Z,22.17
2019-02-04T22:25:26.038Z,41.43
2019-02-04T22:27:57.520Z,22.20
2019-02-04T22:30:34.198Z,22.80
2019-02-04T22:33:04.054Z,22.20
2019-02-04T22:35:37.441Z,21.47
2019-02-04T22:38:06.233Z,22.27
2019-02-04T22:40:35.037Z,23.13
2019-02-04T22:43:03.924Z,21.63
2019-02-04T22:45:32.510Z,21.63
2019-02-04T22:48:01.297Z,21.67
2019-02-04T22:50:30.808Z,22.47
2019-02-04T22:53:02.366Z,22.40
2019-02-04T22:55:32.378Z,22.00
2019-02-04T22:58:01.198Z,21.70
2019-02-04T23:00:49.377Z,23.53
2019-02-04T23:03:23.773Z,22.80
2019-02-04T23:05:52.354Z,22.80
2019-02-04T23:08:20.895Z,22.83
2019-02-04T23:10:49.464Z,22.23
2019-02-04T23:13:17.932Z,24.47
2019-02-04T23:15:46.723Z,24.73
2019-02-04T23:18:15.277Z,23.60
2019-02-04T23:20:43.730Z,23.93
2019-02-04T23:23:12.274Z,23.67
2019-02-04T23:25:43.384Z,22.47
2019-02-04T23:28:11.008Z,23.67
2019-02-04T23:30:39.435Z,23.40
2019-02-04T23:33:07.984Z,23.63
2019-02-04T23:35:36.417Z,24.40
2019-02-04T23:38:06.599Z,23.57
2019-02-04T23:40:35.191Z,21.50
2019-02-04T23:43:03.628Z,22.47
2019-02-04T23:45:32.092Z,22.67
2019-02-04T23:48:00.826Z,23.80
2019-02-04T23:50:29.268Z,23.00
2019-02-04T23:52:57.837Z,22.80
2019-02-04T23:55:26.276Z,24.37
2019-02-04T23:57:54.785Z,22.93
